sensor_id;sensor_type;location;lat;lon;timestamp;pressure;altitude;pressure_sealevel;temperature;humidity
13690;BME280;6917;52.194;9.894;2023-07-31T00:02:22;99952.28;;;16.13;100.00
13690;BME280;6917;52.194;9.894;2023-07-31T00:04:47;99944.91;;;16.36;100.00
13690;BME280;6917;52.194;9.894;2023-07-31T00:07:14;99946.69;;;16.48;100.00
13690;BME280;6917;52.194;9.894;2023-07-31T00:09:39;99928.63;;;16.31;100.00
13690;BME280;6917;52.194;9.894;2023-07-31T00:12:05;99932.91;;;16.29;100.00
13690;BME280;6917;52.194;9.894;2023-07-31T00:14:30;99946.72;;;16.29;100.00
13690;BME280;6917;52.194;9.894;2023-07-31T00:16:56;99924.88;;;16.20;100.00
13690;BME280;6917;52.194;9.894;2023-07-31T00:19:21;99929.06;;;16.14;100.00
13690;BME280;6917;52.194;9.894;2023-07-31T00:21:46;99935.03;;;16.35;100.00
13690;BME280;6917;52.194;9.894;2023-07-31T00:24:11;99926.31;;;16.33;100.00
13690;BME280;6917;52.194;9.894;2023-07-31T00:26:37;99935.38;;;16.34;100.00
13690;BME280;6917;52.194;9.894;2023-07-31T00:29:05;99938.53;;;16.52;100.00
13690;BME280;6917;52.194;9.894;2023-07-31T00:31:30;99930.03;;;16.41;100.00
13690;BME280;6917;52.194;9.894;2023-07-31T00:33:56;99929.97;;;16.38;100.00
13690;BME280;6917;52.194;9.894;2023-07-31T00:36:21;99939.22;;;16.49;100.00
13690;BME280;6917;52.194;9.894;2023-07-31T00:38:46;99942.19;;;16.59;100.00
13690;BME280;6917;52.194;9.894;2023-07-31T00:41:12;99941.56;;;16.66;100.00
13690;BME280;6917;52.194;9.894;2023-07-31T00:43:37;99924.50;;;16.60;100.00
13690;BME280;6917;52.194;9.894;2023-07-31T00:46:02;99934.38;;;16.42;100.00
13690;BME280;6917;52.194;9.894;2023-07-31T00:48:28;99930.09;;;16.45;100.00
13690;BME280;6917;52.194;9.894;2023-07-31T00:50:53;99936.78;;;16.44;100.00
13690;BME280;6917;52.194;9.894;2023-07-31T00:53:19;99938.94;;;16.54;100.00
13690;BME280;6917;52.194;9.894;2023-07-31T00:55:44;99932.91;;;16.29;100.00
13690;BME280;6917;52.194;9.894;2023-07-31T00:58:10;99936.28;;;16.38;100.00
13690;BME280;6917;52.194;9.894;2023-07-31T01:00:35;99922.75;;;16.33;100.00
13690;BME280;6917;52.194;9.894;2023-07-31T01:03:00;99926.53;;;16.44;100.00
13690;BME280;6917;52.194;9.894;2023-07-31T01:05:39;99926.25;;;16.49;100.00
13690;BME280;6917;52.194;9.894;2023-07-31T01:08:32;99919.28;;;16.55;100.00
13690;BME280;6917;52.194;9.894;2023-07-31T01:11:11;99928.41;;;16.59;100.00
13690;BME280;6917;52.194;9.894;2023-07-31T01:13:40;99916.25;;;16.41;100.00
13690;BME280;6917;52.194;9.894;2023-07-31T01:16:05;99916.25;;;16.41;100.00
13690;BME280;6917;52.194;9.894;2023-07-31T01:18:30;99921.75;;;16.41;100.00
13690;BME280;6917;52.194;9.894;2023-07-31T01:21:03;99915.88;;;16.43;100.00
13690;BME280;6917;52.194;9.894;2023-07-31T01:26:41;99910.00;;;16.25;100.00
13690;BME280;6917;52.194;9.894;2023-07-31T01:29:32;99901.22;;;16.19;100.00
13690;BME280;6917;52.194;9.894;2023-07-31T01:32:02;99884.44;;;15.89;100.00
13690;BME280;6917;52.194;9.894;2023-07-31T01:34:29;99896.53;;;15.85;100.00
13690;BME280;6917;52.194;9.894;2023-07-31T01:36:55;99894.28;;;15.71;100.00
13690;BME280;6917;52.194;9.894;2023-07-31T01:39:21;99895.06;;;15.71;100.00
13690;BME280;6917;52.194;9.894;2023-07-31T01:41:46;99893.66;;;15.62;100.00
13690;BME280;6917;52.194;9.894;2023-07-31T01:44:11;99897.03;;;15.71;100.00
13690;BME280;6917;52.194;9.894;2023-07-31T01:46:37;99893.22;;;15.60;100.00
13690;BME280;6917;52.194;9.894;2023-07-31T01:49:02;99875.44;;;15.57;100.00
13690;BME280;6917;52.194;9.894;2023-07-31T01:51:28;99881.94;;;15.65;100.00
13690;BME280;6917;52.194;9.894;2023-07-31T01:53:53;99873.25;;;15.63;100.00
13690;BME280;6917;52.194;9.894;2023-07-31T01:56:18;99875.06;;;15.59;100.00
13690;BME280;6917;52.194;9.894;2023-07-31T01:58:43;99861.09;;;15.48;100.00
13690;BME280;6917;52.194;9.894;2023-07-31T02:01:09;99872.25;;;15.55;100.00
13690;BME280;6917;52.194;9.894;2023-07-31T02:03:34;99864.53;;;15.61;100.00
13690;BME280;6917;52.194;9.894;2023-07-31T02:05:59;99861.09;;;15.48;100.00
13690;BME280;6917;52.194;9.894;2023-07-31T02:08:25;99860.63;;;15.62;100.00
13690;BME280;6917;52.194;9.894;2023-07-31T02:10:50;99863.97;;;15.71;100.00
13690;BME280;6917;52.194;9.894;2023-07-31T02:13:15;99862.31;;;15.66;100.00
13690;BME280;6917;52.194;9.894;2023-07-31T02:15:40;99854.91;;;15.70;100.00
13690;BME280;6917;52.194;9.894;2023-07-31T02:18:06;99862.81;;;15.72;100.00
13690;BME280;6917;52.194;9.894;2023-07-31T02:20:34;99852.75;;;15.80;100.00
13690;BME280;6917;52.194;9.894;2023-07-31T02:23:00;99849.91;;;15.76;100.00
13690;BME280;6917;52.194;9.894;2023-07-31T02:25:25;99844.94;;;15.82;100.00
13690;BME280;6917;52.194;9.894;2023-07-31T02:27:50;99834.91;;;15.73;100.00
13690;BME280;6917;52.194;9.894;2023-07-31T02:30:16;99833.38;;;15.76;100.00
13690;BME280;6917;52.194;9.894;2023-07-31T02:32:41;99831.16;;;15.82;100.00
13690;BME280;6917;52.194;9.894;2023-07-31T02:35:07;99845.00;;;15.85;100.00
13690;BME280;6917;52.194;9.894;2023-07-31T02:37:34;99835.44;;;15.79;100.00
13690;BME280;6917;52.194;9.894;2023-07-31T02:39:59;99838.41;;;15.90;100.00
13690;BME280;6917;52.194;9.894;2023-07-31T02:42:24;99839.41;;;16.01;100.00
13690;BME280;6917;52.194;9.894;2023-07-31T02:44:49;99838.88;;;15.92;100.00
13690;BME280;6917;52.194;9.894;2023-07-31T02:47:20;99831.09;;;15.97;100.00
13690;BME280;6917;52.194;9.894;2023-07-31T02:49:46;99835.56;;;16.05;100.00
13690;BME280;6917;52.194;9.894;2023-07-31T02:52:11;99836.03;;;16.08;100.00
13690;BME280;6917;52.194;9.894;2023-07-31T02:54:36;99827.03;;;15.91;100.00
13690;BME280;6917;52.194;9.894;2023-07-31T02:57:01;99835.75;;;15.93;100.00
13690;BME280;6917;52.194;9.894;2023-07-31T02:59:27;99831.97;;;15.82;100.00
13690;BME280;6917;52.194;9.894;2023-07-31T03:01:53;99834.41;;;15.87;100.00
13690;BME280;6917;52.194;9.894;2023-07-31T03:04:18;99835.66;;;15.90;100.00
13690;BME280;6917;52.194;9.894;2023-07-31T03:06:43;99839.13;;;15.87;100.00
13690;BME280;6917;52.194;9.894;2023-07-31T03:09:09;99831.81;;;15.94;100.00
13690;BME280;6917;52.194;9.894;2023-07-31T03:11:34;99841.53;;;15.88;100.00
13690;BME280;6917;52.194;9.894;2023-07-31T03:13:59;99839.78;;;15.80;100.00
13690;BME280;6917;52.194;9.894;2023-07-31T03:16:24;99840.66;;;15.84;100.00
13690;BME280;6917;52.194;9.894;2023-07-31T03:18:50;99832.38;;;15.84;100.00
13690;BME280;6917;52.194;9.894;2023-07-31T03:21:15;99833.56;;;15.83;100.00
13690;BME280;6917;52.194;9.894;2023-07-31T03:23:40;99835.06;;;15.81;100.00
13690;BME280;6917;52.194;9.894;2023-07-31T03:26:08;99853.75;;;15.91;100.00
13690;BME280;6917;52.194;9.894;2023-07-31T03:28:33;99835.88;;;15.81;100.00
13690;BME280;6917;52.194;9.894;2023-07-31T03:30:59;99851.38;;;15.89;100.00
13690;BME280;6917;52.194;9.894;2023-07-31T03:33:25;99848.84;;;15.81;100.00
13690;BME280;6917;52.194;9.894;2023-07-31T03:35:50;99846.59;;;15.67;100.00
13690;BME280;6917;52.194;9.894;2023-07-31T03:38:16;99858.47;;;15.71;100.00
13690;BME280;6917;52.194;9.894;2023-07-31T03:40:41;99854.94;;;15.55;100.00
13690;BME280;6917;52.194;9.894;2023-07-31T03:43:06;99853.38;;;15.73;100.00
13690;BME280;6917;52.194;9.894;2023-07-31T03:45:31;99853.56;;;15.80;100.00
13690;BME280;6917;52.194;9.894;2023-07-31T03:47:57;99857.84;;;15.77;100.00
13690;BME280;6917;52.194;9.894;2023-07-31T03:50:22;99857.84;;;15.77;100.00
13690;BME280;6917;52.194;9.894;2023-07-31T03:52:48;99860.06;;;15.72;100.00
13690;BME280;6917;52.194;9.894;2023-07-31T03:55:13;99860.06;;;15.72;100.00
13690;BME280;6917;52.194;9.894;2023-07-31T03:57:38;99851.66;;;15.49;100.00
13690;BME280;6917;52.194;9.894;2023-07-31T04:00:04;99856.16;;;15.57;100.00
13690;BME280;6917;52.194;9.894;2023-07-31T04:02:29;99844.03;;;15.42;100.00
13690;BME280;6917;52.194;9.894;2023-07-31T04:04:55;99851.25;;;15.31;100.00
13690;BME280;6917;52.194;9.894;2023-07-31T04:07:20;99849.81;;;15.37;100.00
13690;BME280;6917;52.194;9.894;2023-07-31T04:09:45;99848.41;;;15.28;100.00
13690;BME280;6917;52.194;9.894;2023-07-31T04:12:11;99850.44;;;15.31;100.00
13690;BME280;6917;52.194;9.894;2023-07-31T04:14:37;99846.16;;;15.33;100.00
13690;BME280;6917;52.194;9.894;2023-07-31T04:17:02;99852.03;;;15.32;100.00
13690;BME280;6917;52.194;9.894;2023-07-31T04:19:27;99850.38;;;15.27;100.00
13690;BME280;6917;52.194;9.894;2023-07-31T04:21:52;99841.38;;;15.30;100.00
13690;BME280;6917;52.194;9.894;2023-07-31T04:24:18;99838.16;;;15.44;100.00
13690;BME280;6917;52.194;9.894;2023-07-31T04:26:49;99845.38;;;15.48;100.00
13690;BME280;6917;52.194;9.894;2023-07-31T04:29:15;99839.97;;;15.36;100.00
13690;BME280;6917;52.194;9.894;2023-07-31T04:31:41;99840.84;;;15.40;100.00
13690;BME280;6917;52.194;9.894;2023-07-31T04:34:06;99833.03;;;15.42;100.00
13690;BME280;6917;52.194;9.894;2023-07-31T04:36:32;99840.56;;;15.45;100.00
13690;BME280;6917;52.194;9.894;2023-07-31T04:38:58;99840.66;;;15.49;100.00
13690;BME280;6917;52.194;9.894;2023-07-31T04:41:23;99843.06;;;15.51;100.00
13690;BME280;6917;52.194;9.894;2023-07-31T04:43:48;99838.16;;;15.44;100.00
13690;BME280;6917;52.194;9.894;2023-07-31T04:46:13;99840.47;;;15.42;100.00
13690;BME280;6917;52.194;9.894;2023-07-31T04:48:39;99846.97;;;15.50;100.00
13690;BME280;6917;52.194;9.894;2023-07-31T04:51:04;99841.34;;;15.46;100.00
13690;BME280;6917;52.194;9.894;2023-07-31T04:53:29;99831.13;;;15.46;100.00
13690;BME280;6917;52.194;9.894;2023-07-31T04:55:54;99836.31;;;15.48;100.00
13690;BME280;6917;52.194;9.894;2023-07-31T04:58:20;99834.94;;;15.58;100.00
13690;BME280;6917;52.194;9.894;2023-07-31T05:00:45;99822.63;;;15.52;100.00
13690;BME280;6917;52.194;9.894;2023-07-31T05:03:10;99818.28;;;15.51;100.00
13690;BME280;6917;52.194;9.894;2023-07-31T05:05:36;99826.25;;;15.56;100.00
13690;BME280;6917;52.194;9.894;2023-07-31T05:08:02;99823.47;;;15.56;100.00
13690;BME280;6917;52.194;9.894;2023-07-31T05:10:27;99825.88;;;15.57;100.00
13690;BME280;6917;52.194;9.894;2023-07-31T05:12:52;99830.69;;;15.60;100.00
13690;BME280;6917;52.194;9.894;2023-07-31T05:15:17;99827.75;;;15.69;100.00
13690;BME280;6917;52.194;9.894;2023-07-31T05:17:43;99823.91;;;15.73;100.00
13690;BME280;6917;52.194;9.894;2023-07-31T05:20:08;99820.34;;;15.73;100.00
13690;BME280;6917;52.194;9.894;2023-07-31T05:22:34;99824.97;;;15.69;100.00
13690;BME280;6917;52.194;9.894;2023-07-31T05:24:59;99818.47;;;15.77;100.00
13690;BME280;6917;52.194;9.894;2023-07-31T05:27:25;99816.97;;;15.80;100.00
13690;BME280;6917;52.194;9.894;2023-07-31T05:29:50;99815.44;;;15.82;100.00
13690;BME280;6917;52.194;9.894;2023-07-31T05:32:15;99817.03;;;15.83;100.00
13690;BME280;6917;52.194;9.894;2023-07-31T05:34:41;99817.31;;;15.78;100.00
13690;BME280;6917;52.194;9.894;2023-07-31T05:37:06;99819.03;;;15.86;100.00
13690;BME280;6917;52.194;9.894;2023-07-31T05:39:31;99805.94;;;15.80;100.00
13690;BME280;6917;52.194;9.894;2023-07-31T05:41:57;99817.16;;;15.90;100.00
13690;BME280;6917;52.194;9.894;2023-07-31T05:44:22;99823.56;;;15.94;100.00
13690;BME280;6917;52.194;9.894;2023-07-31T05:46:47;99813.28;;;15.91;100.00
13690;BME280;6917;52.194;9.894;2023-07-31T05:49:12;99812.53;;;15.94;100.00
13690;BME280;6917;52.194;9.894;2023-07-31T05:51:38;99806.78;;;16.03;100.00
13690;BME280;6917;52.194;9.894;2023-07-31T05:54:03;99807.88;;;15.98;100.00
13690;BME280;6917;52.194;9.894;2023-07-31T05:56:28;99809.41;;;15.96;100.00
13690;BME280;6917;52.194;9.894;2023-07-31T05:58:54;99811.00;;;15.97;100.00
13690;BME280;6917;52.194;9.894;2023-07-31T06:01:19;99804.91;;;15.88;100.00
13690;BME280;6917;52.194;9.894;2023-07-31T06:03:46;99808.88;;;15.90;100.00
13690;BME280;6917;52.194;9.894;2023-07-31T06:06:11;99804.84;;;15.84;100.00
13690;BME280;6917;52.194;9.894;2023-07-31T06:08:37;99811.81;;;15.78;100.00
13690;BME280;6917;52.194;9.894;2023-07-31T06:11:02;99810.50;;;15.91;100.00
13690;BME280;6917;52.194;9.894;2023-07-31T06:13:27;99807.66;;;15.88;100.00
13690;BME280;6917;52.194;9.894;2023-07-31T06:15:53;99813.59;;;15.90;100.00
13690;BME280;6917;52.194;9.894;2023-07-31T06:18:18;99803.91;;;15.96;100.00
13690;BME280;6917;52.194;9.894;2023-07-31T06:20:43;99808.97;;;15.94;100.00
13690;BME280;6917;52.194;9.894;2023-07-31T06:23:09;99798.03;;;15.97;100.00
13690;BME280;6917;52.194;9.894;2023-07-31T06:25:34;99800.41;;;15.99;100.00
13690;BME280;6917;52.194;9.894;2023-07-31T06:28:00;99805.34;;;15.90;100.00
13690;BME280;6917;52.194;9.894;2023-07-31T06:30:25;99810.50;;;15.91;100.00
13690;BME280;6917;52.194;9.894;2023-07-31T06:32:50;99799.50;;;15.91;100.00
13690;BME280;6917;52.194;9.894;2023-07-31T06:35:15;99810.16;;;15.93;100.00
13690;BME280;6917;52.194;9.894;2023-07-31T06:37:41;99802.69;;;15.93;100.00
13690;BME280;6917;52.194;9.894;2023-07-31T06:40:09;99806.13;;;15.90;100.00
13690;BME280;6917;52.194;9.894;2023-07-31T06:42:35;99803.31;;;15.87;100.00
13690;BME280;6917;52.194;9.894;2023-07-31T06:45:01;99807.97;;;15.83;100.00
13690;BME280;6917;52.194;9.894;2023-07-31T06:47:27;99808.19;;;15.93;100.00
13690;BME280;6917;52.194;9.894;2023-07-31T06:49:52;99807.53;;;16.00;100.00
13690;BME280;6917;52.194;9.894;2023-07-31T06:52:17;99810.28;;;16.00;100.00
13690;BME280;6917;52.194;9.894;2023-07-31T06:54:42;99800.78;;;15.97;100.00
13690;BME280;6917;52.194;9.894;2023-07-31T06:57:08;99805.13;;;15.98;100.00
13690;BME280;6917;52.194;9.894;2023-07-31T06:59:33;99796.72;;;16.11;100.00
13690;BME280;6917;52.194;9.894;2023-07-31T07:01:58;99785.69;;;16.11;100.00
13690;BME280;6917;52.194;9.894;2023-07-31T07:04:24;99777.38;;;16.07;100.00
13690;BME280;6917;52.194;9.894;2023-07-31T07:06:49;99790.78;;;16.09;100.00
13690;BME280;6917;52.194;9.894;2023-07-31T07:09:14;99782.13;;;16.10;100.00
13690;BME280;6917;52.194;9.894;2023-07-31T07:11:40;99763.44;;;16.00;100.00
13690;BME280;6917;52.194;9.894;2023-07-31T07:14:05;99770.25;;;16.06;100.00
13690;BME280;6917;52.194;9.894;2023-07-31T07:16:30;99765.53;;;16.06;100.00
13690;BME280;6917;52.194;9.894;2023-07-31T07:18:56;99771.50;;;16.09;100.00
13690;BME280;6917;52.194;9.894;2023-07-31T07:21:21;99758.56;;;16.13;100.00
13690;BME280;6917;52.194;9.894;2023-07-31T07:23:46;99761.53;;;16.23;100.00
13690;BME280;6917;52.194;9.894;2023-07-31T07:26:12;99762.31;;;16.24;100.00
13690;BME280;6917;52.194;9.894;2023-07-31T07:28:37;99771.31;;;16.21;100.00
13690;BME280;6917;52.194;9.894;2023-07-31T07:31:03;99771.31;;;16.21;100.00
13690;BME280;6917;52.194;9.894;2023-07-31T07:33:28;99763.22;;;16.31;100.00
13690;BME280;6917;52.194;9.894;2023-07-31T07:35:54;99755.03;;;16.35;100.00
13690;BME280;6917;52.194;9.894;2023-07-31T07:38:19;99753.25;;;16.46;100.00
13690;BME280;6917;52.194;9.894;2023-07-31T07:40:44;99754.84;;;16.47;100.00
13690;BME280;6917;52.194;9.894;2023-07-31T07:43:12;99754.97;;;16.31;100.00
13690;BME280;6917;52.194;9.894;2023-07-31T07:45:37;99764.91;;;16.36;100.00
13690;BME280;6917;52.194;9.894;2023-07-31T07:48:02;99777.09;;;16.35;100.00
13690;BME280;6917;52.194;9.894;2023-07-31T07:50:28;99781.88;;;16.38;100.00
13690;BME280;6917;52.194;9.894;2023-07-31T07:52:53;99781.06;;;16.38;100.00
13690;BME280;6917;52.194;9.894;2023-07-31T07:55:18;99789.72;;;16.36;100.00
13690;BME280;6917;52.194;9.894;2023-07-31T07:57:43;99785.28;;;16.31;100.00
13690;BME280;6917;52.194;9.894;2023-07-31T08:00:10;99782.66;;;16.39;100.00
13690;BME280;6917;52.194;9.894;2023-07-31T08:02:35;99778.53;;;16.29;100.00
13690;BME280;6917;52.194;9.894;2023-07-31T08:05:01;99780.13;;;16.30;100.00
13690;BME280;6917;52.194;9.894;2023-07-31T08:07:26;99779.50;;;16.36;100.00
13690;BME280;6917;52.194;9.894;2023-07-31T08:09:52;99783.31;;;16.32;100.00
13690;BME280;6917;52.194;9.894;2023-07-31T08:12:17;99770.53;;;16.20;100.00
13690;BME280;6917;52.194;9.894;2023-07-31T08:14:42;99790.06;;;16.34;100.00
13690;BME280;6917;52.194;9.894;2023-07-31T08:17:08;99780.94;;;16.30;100.00
13690;BME280;6917;52.194;9.894;2023-07-31T08:19:33;99779.34;;;16.29;100.00
13690;BME280;6917;52.194;9.894;2023-07-31T08:21:59;99795.34;;;16.43;100.00
13690;BME280;6917;52.194;9.894;2023-07-31T08:24:24;99791.78;;;16.43;100.00
13690;BME280;6917;52.194;9.894;2023-07-31T08:26:49;99783.66;;;16.50;100.00
13690;BME280;6917;52.194;9.894;2023-07-31T08:29:15;99771.00;;;16.49;100.00
13690;BME280;6917;52.194;9.894;2023-07-31T08:31:40;99780.66;;;16.58;100.00
13690;BME280;6917;52.194;9.894;2023-07-31T08:34:05;99772.69;;;16.53;100.00
13690;BME280;6917;52.194;9.894;2023-07-31T08:36:31;99777.78;;;16.51;100.00
13690;BME280;6917;52.194;9.894;2023-07-31T08:38:56;99777.03;;;16.54;100.00
13690;BME280;6917;52.194;9.894;2023-07-31T08:41:21;99771.56;;;16.58;100.00
13690;BME280;6917;52.194;9.894;2023-07-31T08:43:47;99767.00;;;16.65;100.00
13690;BME280;6917;52.194;9.894;2023-07-31T08:46:14;99767.88;;;16.70;100.00
13690;BME280;6917;52.194;9.894;2023-07-31T08:48:42;99754.00;;;16.66;100.00
13690;BME280;6917;52.194;9.894;2023-07-31T08:51:08;99767.53;;;16.52;100.00
13690;BME280;6917;52.194;9.894;2023-07-31T08:53:33;99771.84;;;16.49;100.00
13690;BME280;6917;52.194;9.894;2023-07-31T08:55:59;99761.84;;;16.41;100.00
13690;BME280;6917;52.194;9.894;2023-07-31T08:58:30;99773.59;;;16.38;100.00
13690;BME280;6917;52.194;9.894;2023-07-31T09:00:56;99758.88;;;16.30;100.00
13690;BME280;6917;52.194;9.894;2023-07-31T09:03:24;99762.16;;;16.36;100.00
13690;BME280;6917;52.194;9.894;2023-07-31T09:05:51;99765.19;;;16.31;100.00
13690;BME280;6917;52.194;9.894;2023-07-31T09:08:21;99761.41;;;16.39;100.00
13690;BME280;6917;52.194;9.894;2023-07-31T09:10:47;99761.41;;;16.39;100.00
13690;BME280;6917;52.194;9.894;2023-07-31T09:13:15;99759.63;;;16.50;100.00
13690;BME280;6917;52.194;9.894;2023-07-31T09:15:43;99761.28;;;16.55;100.00
13690;BME280;6917;52.194;9.894;2023-07-31T09:18:08;99758.09;;;16.53;100.00
13690;BME280;6917;52.194;9.894;2023-07-31T09:20:35;99754.84;;;16.47;100.00
13690;BME280;6917;52.194;9.894;2023-07-31T09:23:09;99754.41;;;16.45;100.00
13690;BME280;6917;52.194;9.894;2023-07-31T09:25:35;99751.66;;;16.45;100.00
13690;BME280;6917;52.194;9.894;2023-07-31T09:28:03;99753.00;;;16.55;100.00
13690;BME280;6917;52.194;9.894;2023-07-31T09:30:29;99748.28;;;16.55;100.00
13690;BME280;6917;52.194;9.894;2023-07-31T09:33:03;99744.03;;;16.61;100.00
13690;BME280;6917;52.194;9.894;2023-07-31T09:35:30;99751.00;;;16.75;100.00
13690;BME280;6917;52.194;9.894;2023-07-31T09:38:10;99740.75;;;16.75;100.00
13690;BME280;6917;52.194;9.894;2023-07-31T09:40:40;99741.97;;;16.78;100.00
13690;BME280;6917;52.194;9.894;2023-07-31T09:43:07;99737.19;;;16.75;100.00
13690;BME280;6917;52.194;9.894;2023-07-31T09:45:38;99737.31;;;16.82;100.00
13690;BME280;6917;52.194;9.894;2023-07-31T09:48:10;99739.44;;;16.92;100.00
13690;BME280;6917;52.194;9.894;2023-07-31T09:50:38;99734.50;;;17.05;100.00
13690;BME280;6917;52.194;9.894;2023-07-31T09:53:04;99732.44;;;16.98;100.00
13690;BME280;6917;52.194;9.894;2023-07-31T09:55:30;99721.00;;;16.96;100.00
13690;BME280;6917;52.194;9.894;2023-07-31T09:57:57;99724.03;;;16.91;100.00
13690;BME280;6917;52.194;9.894;2023-07-31T10:00:23;99711.00;;;16.88;100.00
13690;BME280;6917;52.194;9.894;2023-07-31T10:02:52;99712.59;;;16.89;100.00
13690;BME280;6917;52.194;9.894;2023-07-31T10:05:19;99710.47;;;17.05;100.00
13690;BME280;6917;52.194;9.894;2023-07-31T10:07:54;99703.50;;;17.15;100.00
13690;BME280;6917;52.194;9.894;2023-07-31T10:10:21;99702.44;;;17.23;100.00
13690;BME280;6917;52.194;9.894;2023-07-31T10:12:52;99707.16;;;17.22;100.00
13690;BME280;6917;52.194;9.894;2023-07-31T10:15:18;99702.81;;;17.21;100.00
13690;BME280;6917;52.194;9.894;2023-07-31T10:17:47;99696.66;;;17.35;100.00
13690;BME280;6917;52.194;9.894;2023-07-31T10:20:14;99704.66;;;17.44;100.00
13690;BME280;6917;52.194;9.894;2023-07-31T10:22:42;99702.47;;;17.57;100.00
13690;BME280;6917;52.194;9.894;2023-07-31T10:25:09;99696.91;;;17.53;100.00
13690;BME280;6917;52.194;9.894;2023-07-31T10:27:41;99689.78;;;17.52;100.00
13690;BME280;6917;52.194;9.894;2023-07-31T10:30:14;99677.06;;;17.44;100.00
13690;BME280;6917;52.194;9.894;2023-07-31T10:32:41;99677.06;;;17.44;100.00
13690;BME280;6917;52.194;9.894;2023-07-31T10:35:08;99679.44;;;17.45;100.00
13690;BME280;6917;52.194;9.894;2023-07-31T10:37:41;99671.66;;;17.54;100.00
13690;BME280;6917;52.194;9.894;2023-07-31T10:40:17;99668.13;;;17.58;100.00
13690;BME280;6917;52.194;9.894;2023-07-31T10:42:52;99674.22;;;17.70;100.00
13690;BME280;6917;52.194;9.894;2023-07-31T10:48:04;99676.66;;;18.16;100.00
13690;BME280;6917;52.194;9.894;2023-07-31T10:50:38;99666.25;;;18.47;100.00
13690;BME280;6917;52.194;9.894;2023-07-31T10:53:03;99645.81;;;18.62;100.00
13690;BME280;6917;52.194;9.894;2023-07-31T10:55:30;99653.09;;;18.84;100.00
13690;BME280;6917;52.194;9.894;2023-07-31T10:58:00;99646.09;;;19.01;100.00
13690;BME280;6917;52.194;9.894;2023-07-31T11:00:38;99640.16;;;19.06;100.00
13690;BME280;6917;52.194;9.894;2023-07-31T11:03:06;99623.94;;;19.08;100.00
13690;BME280;6917;52.194;9.894;2023-07-31T11:08:21;99623.94;;;19.01;100.00
13690;BME280;6917;52.194;9.894;2023-07-31T11:10:49;99604.47;;;18.87;100.00
13690;BME280;6917;52.194;9.894;2023-07-31T11:13:15;99618.00;;;18.99;100.00
13690;BME280;6917;52.194;9.894;2023-07-31T11:15:43;99623.13;;;19.00;100.00
13690;BME280;6917;52.194;9.894;2023-07-31T11:18:09;99622.28;;;18.89;100.00
13690;BME280;6917;52.194;9.894;2023-07-31T11:20:38;99623.06;;;18.86;100.00
13690;BME280;6917;52.194;9.894;2023-07-31T11:23:07;99615.16;;;18.85;100.00
13690;BME280;6917;52.194;9.894;2023-07-31T11:25:33;99619.53;;;18.93;100.00
13690;BME280;6917;52.194;9.894;2023-07-31T11:28:10;99608.44;;;18.86;100.00
13690;BME280;6917;52.194;9.894;2023-07-31T11:30:37;99606.47;;;18.86;100.00
13690;BME280;6917;52.194;9.894;2023-07-31T11:33:04;99603.69;;;18.83;100.00
13690;BME280;6917;52.194;9.894;2023-07-31T11:35:34;99601.66;;;18.80;100.00
13690;BME280;6917;52.194;9.894;2023-07-31T11:38:01;99608.44;;;18.89;100.00
13690;BME280;6917;52.194;9.894;2023-07-31T11:40:29;99601.72;;;18.94;100.00
13690;BME280;6917;52.194;9.894;2023-07-31T11:42:58;99593.34;;;18.76;100.00
13690;BME280;6917;52.194;9.894;2023-07-31T11:45:27;99609.28;;;19.00;100.00
13690;BME280;6917;52.194;9.894;2023-07-31T11:47:54;99604.94;;;19.03;100.00
13690;BME280;6917;52.194;9.894;2023-07-31T11:50:20;99595.38;;;18.86;100.00
13690;BME280;6917;52.194;9.894;2023-07-31T11:52:46;99593.06;;;18.99;100.00
13690;BME280;6917;52.194;9.894;2023-07-31T11:55:13;99594.72;;;19.11;100.00
13690;BME280;6917;52.194;9.894;2023-07-31T11:57:43;99594.34;;;19.23;100.00
13690;BME280;6917;52.194;9.894;2023-07-31T12:00:11;99592.00;;;19.25;100.00
13690;BME280;6917;52.194;9.894;2023-07-31T12:02:38;99569.00;;;19.21;98.58
13690;BME280;6917;52.194;9.894;2023-07-31T12:05:12;99575.34;;;19.14;98.67
13690;BME280;6917;52.194;9.894;2023-07-31T12:07:49;99578.84;;;19.08;99.40
13690;BME280;6917;52.194;9.894;2023-07-31T12:10:29;99575.69;;;19.06;99.82
13690;BME280;6917;52.194;9.894;2023-07-31T12:13:03;99576.47;;;19.06;99.52
13690;BME280;6917;52.194;9.894;2023-07-31T12:15:35;99580.41;;;18.98;100.00
13690;BME280;6917;52.194;9.894;2023-07-31T12:18:09;99572.00;;;18.80;100.00
13690;BME280;6917;52.194;9.894;2023-07-31T12:20:40;99589.03;;;18.82;100.00
13690;BME280;6917;52.194;9.894;2023-07-31T12:23:05;99578.59;;;18.61;100.00
13690;BME280;6917;52.194;9.894;2023-07-31T12:25:32;99579.38;;;18.55;100.00
13690;BME280;6917;52.194;9.894;2023-07-31T12:28:03;99595.69;;;18.70;100.00
13690;BME280;6917;52.194;9.894;2023-07-31T12:30:33;99585.38;;;18.64;100.00
13690;BME280;6917;52.194;9.894;2023-07-31T12:33:21;99584.25;;;18.72;100.00
13690;BME280;6917;52.194;9.894;2023-07-31T12:35:47;99588.19;;;18.71;100.00
13690;BME280;6917;52.194;9.894;2023-07-31T12:38:13;99580.19;;;18.59;100.00
13690;BME280;6917;52.194;9.894;2023-07-31T12:40:39;99579.22;;;18.33;100.00
13690;BME280;6917;52.194;9.894;2023-07-31T12:43:06;99577.56;;;18.22;100.00
13690;BME280;6917;52.194;9.894;2023-07-31T12:45:31;99581.88;;;18.16;100.00
13690;BME280;6917;52.194;9.894;2023-07-31T12:47:58;99587.00;;;18.13;100.00
13690;BME280;6917;52.194;9.894;2023-07-31T12:50:23;99602.81;;;18.20;100.00
13690;BME280;6917;52.194;9.894;2023-07-31T12:52:49;99592.53;;;18.17;100.00
13690;BME280;6917;52.194;9.894;2023-07-31T12:55:14;99583.47;;;18.20;100.00
13690;BME280;6917;52.194;9.894;2023-07-31T12:57:40;99593.34;;;18.21;100.00
13690;BME280;6917;52.194;9.894;2023-07-31T13:00:07;99583.56;;;18.31;100.00
13690;BME280;6917;52.194;9.894;2023-07-31T13:02:33;99570.06;;;18.22;100.00
13690;BME280;6917;52.194;9.894;2023-07-31T13:04:58;99571.38;;;18.42;100.00
13690;BME280;6917;52.194;9.894;2023-07-31T13:07:23;99577.38;;;18.52;100.00